createdAt,value
2023-02-26T00:01:56.237Z,71.34
2023-02-26T00:04:24.817Z,71.24
2023-02-26T00:06:55.484Z,71.05
2023-02-26T00:09:25.581Z,71.11
2023-02-26T00:11:55.063Z,71.51
2023-02-26T00:14:25.122Z,71.64
2023-02-26T00:17:06.197Z,71.43
2023-02-26T00:19:35.061Z,70.71
2023-02-26T00:22:04.034Z,70.49
2023-02-26T00:24:32.409Z,70.31
2023-02-26T00:27:00.854Z,70.20
2023-02-26T00:29:29.698Z,70.12
2023-02-26T00:31:58.632Z,69.92
2023-02-26T00:34:27.506Z,70.21
2023-02-26T00:37:11.344Z,70.40
2023-02-26T00:40:04.016Z,70.67
2023-02-26T00:42:33.354Z,70.61
2023-02-26T00:45:02.762Z,70.13
2023-02-26T00:47:49.011Z,70.48
2023-02-26T00:50:26.101Z,70.24
2023-02-26T00:53:17.294Z,70.41
2023-02-26T00:55:45.770Z,70.45
2023-02-26T00:58:14.248Z,70.09
2023-02-26T01:00:42.782Z,70.08
2023-02-26T01:03:12.223Z,69.83
2023-02-26T01:05:41.210Z,69.50
2023-02-26T01:08:18.774Z,69.59
2023-02-26T01:10:47.559Z,69.92
2023-02-26T01:13:16.709Z,70.87
2023-02-26T01:15:53.003Z,71.17
2023-02-26T01:18:31.812Z,70.72
2023-02-26T01:21:05.547Z,70.88
2023-02-26T01:23:40.714Z,70.71
2023-02-26T01:26:20.813Z,70.92
2023-02-26T01:28:49.803Z,71.32
2023-02-26T01:31:54.098Z,72.24
2023-02-26T01:34:51.934Z,72.01
2023-02-26T01:37:28.020Z,72.49
2023-02-26T01:40:48.273Z,72.35
2023-02-26T01:44:19.858Z,73.23
2023-02-26T01:47:21.070Z,74.61
2023-02-26T01:49:50.434Z,75.45
2023-02-26T01:52:49.799Z,75.32
2023-02-26T01:55:23.852Z,75.56
2023-02-26T01:57:57.418Z,75.32
2023-02-26T02:00:26.284Z,75.80
2023-02-26T02:02:55.267Z,76.20
2023-02-26T02:05:42.031Z,75.89
2023-02-26T02:08:12.425Z,76.57
2023-02-26T02:10:45.886Z,75.99
2023-02-26T02:13:38.002Z,75.78
2023-02-26T02:16:06.679Z,76.05
2023-02-26T02:19:32.246Z,75.42
2023-02-26T02:22:24.556Z,76.30
2023-02-26T02:24:52.953Z,77.20
2023-02-26T02:27:40.836Z,77.78
2023-02-26T02:30:56.381Z,76.60
2023-02-26T02:33:38.441Z,77.43
2023-02-26T02:36:17.447Z,78.28
2023-02-26T02:38:52.923Z,78.02
2023-02-26T02:41:44.250Z,77.98
2023-02-26T02:44:19.306Z,76.99
2023-02-26T02:46:52.074Z,77.94
2023-02-26T02:49:37.199Z,76.87
2023-02-26T02:52:22.735Z,76.80
2023-02-26T02:55:09.970Z,76.61
2023-02-26T02:57:54.820Z,77.06
2023-02-26T03:00:24.896Z,78.32
2023-02-26T03:03:30.873Z,79.42
2023-02-26T03:06:01.926Z,79.12
2023-02-26T03:08:37.215Z,77.69
2023-02-26T03:11:06.033Z,78.13
2023-02-26T03:13:35.453Z,79.45
2023-02-26T03:16:44.037Z,77.63
2023-02-26T03:19:40.921Z,79.03
2023-02-26T03:22:39.657Z,77.83
2023-02-26T03:25:26.549Z,76.76
2023-02-26T03:28:41.213Z,77.76
2023-02-26T03:31:19.019Z,77.70
2023-02-26T03:34:14.602Z,79.63
2023-02-26T03:37:26.275Z,79.46
2023-02-26T03:39:59.904Z,78.58
2023-02-26T03:42:44.679Z,78.69
2023-02-26T03:45:25.660Z,78.30
2023-02-26T03:47:56.582Z,78.24
2023-02-26T03:50:37.581Z,77.62
2023-02-26T03:54:03.327Z,78.62
2023-02-26T03:56:42.110Z,77.64
2023-02-26T03:59:33.298Z,78.36
2023-02-26T04:02:30.872Z,78.51
2023-02-26T04:05:28.026Z,78.20
2023-02-26T04:07:57.667Z,78.34
2023-02-26T04:10:43.370Z,77.88
2023-02-26T04:13:12.048Z,77.81
2023-02-26T04:15:40.553Z,78.90
2023-02-26T04:18:09.268Z,78.94
2023-02-26T04:20:37.801Z,79.60
2023-02-26T04:23:06.718Z,78.95
2023-02-26T04:25:35.227Z,78.53
2023-02-26T04:28:04.085Z,80.80
2023-02-26T04:30:33.722Z,79.11
2023-02-26T04:33:03.127Z,78.85
2023-02-26T04:35:31.926Z,80.26
2023-02-26T04:38:00.369Z,81.39
2023-02-26T04:40:28.895Z,80.98
2023-02-26T04:42:57.760Z,80.96
2023-02-26T04:45:27.931Z,79.45
2023-02-26T04:47:56.358Z,79.66
2023-02-26T04:50:24.874Z,80.47
2023-02-26T04:52:54.346Z,79.08
2023-02-26T04:55:23.591Z,79.05
2023-02-26T04:57:52.961Z,81.72
2023-02-26T05:00:24.218Z,81.05
2023-02-26T05:02:52.834Z,83.10
2023-02-26T05:05:21.420Z,83.72
2023-02-26T05:07:53.922Z,83.82
2023-02-26T05:10:23.579Z,82.35
2023-02-26T05:12:52.073Z,82.53
2023-02-26T05:15:21.053Z,83.17
2023-02-26T05:17:51.002Z,81.77
2023-02-26T05:20:19.734Z,82.75
2023-02-26T05:22:48.699Z,82.69
2023-02-26T05:25:17.391Z,82.07
2023-02-26T05:27:45.947Z,82.05
2023-02-26T05:30:16.910Z,80.90
2023-02-26T05:32:45.828Z,82.89
2023-02-26T05:35:14.479Z,81.72
2023-02-26T05:37:43.022Z,81.67
2023-02-26T05:40:12.307Z,83.04
2023-02-26T05:42:45.032Z,84.38
2023-02-26T05:45:14.640Z,83.89
2023-02-26T05:47:43.577Z,82.36
2023-02-26T05:50:12.916Z,83.04
2023-02-26T05:52:41.463Z,83.68
2023-02-26T05:55:11.099Z,83.95
2023-02-26T05:57:42.857Z,83.76
2023-02-26T06:00:13.565Z,84.53
2023-02-26T06:02:42.473Z,85.07
2023-02-26T06:05:11.518Z,86.14
2023-02-26T06:07:40.080Z,86.69
2023-02-26T06:10:10.499Z,87.97
2023-02-26T06:12:40.102Z,88.50
2023-02-26T06:15:10.399Z,89.19
2023-02-26T06:17:41.081Z,88.62
2023-02-26T06:20:11.463Z,89.97
2023-02-26T06:22:40.391Z,90.92
2023-02-26T06:25:09.696Z,91.22
2023-02-26T06:27:38.904Z,91.65
2023-02-26T06:30:29.367Z,91.96
2023-02-26T06:33:54.072Z,93.30
2023-02-26T06:36:39.973Z,93.40
2023-02-26T06:39:26.746Z,93.41
2023-02-26T06:41:58.620Z,93.21
2023-02-26T06:44:29.478Z,93.53
2023-02-26T06:47:01.044Z,92.99
2023-02-26T06:49:29.528Z,92.68
2023-02-26T06:51:58.093Z,92.22
2023-02-26T06:54:26.574Z,92.89
2023-02-26T06:56:57.888Z,92.41
2023-02-26T06:59:29.168Z,92.14
2023-02-26T07:01:57.802Z,92.30
2023-02-26T07:04:26.338Z,92.67
2023-02-26T07:06:54.887Z,92.61
2023-02-26T07:09:23.458Z,92.58
2023-02-26T07:11:51.982Z,92.86
2023-02-26T07:14:20.394Z,93.01
2023-02-26T07:16:49.050Z,92.97
2023-02-26T07:19:17.766Z,93.42
2023-02-26T07:21:46.231Z,93.37
2023-02-26T07:24:15.031Z,91.47
2023-02-26T07:26:43.629Z,91.04
2023-02-26T07:29:12.211Z,91.86
2023-02-26T07:31:40.718Z,92.89
2023-02-26T07:34:09.557Z,92.52
2023-02-26T07:36:38.344Z,92.08
2023-02-26T07:39:06.837Z,91.46
2023-02-26T07:42:29.552Z,91.93
2023-02-26T07:45:02.809Z,91.28
2023-02-26T07:47:37.235Z,92.40
2023-02-26T07:50:46.390Z,92.83
2023-02-26T07:53:21.419Z,92.80
2023-02-26T07:56:14.619Z,93.53
2023-02-26T07:58:43.349Z,93.30
2023-02-26T13:57:25.655Z,99.87
2023-02-26T14:00:00.100Z,99.94
2023-02-26T14:02:46.192Z,100.00
2023-02-26T14:05:53.985Z,99.95
2023-02-26T14:08:50.528Z,99.71
2023-02-26T14:12:03.462Z,99.58
2023-02-26T14:14:36.129Z,99.94
2023-02-26T14:17:07.482Z,100.00
2023-02-26T14:20:15.433Z,99.99
2023-02-26T14:22:50.212Z,100.00
2023-02-26T14:25:34.889Z,100.00
2023-02-26T14:28:20.707Z,100.00
2023-02-26T14:31:15.020Z,100.00
2023-02-26T14:34:09.431Z,100.00
2023-02-26T14:36:51.769Z,100.00
2023-02-26T14:39:48.074Z,100.00
2023-02-26T14:42:29.374Z,100.00
2023-02-26T14:45:16.491Z,100.00
2023-02-26T14:47:49.365Z,100.00
2023-02-26T14:51:00.318Z,100.00
2023-02-26T14:54:18.591Z,100.00
2023-02-26T14:57:07.877Z,100.00
2023-02-26T15:00:13.318Z,100.00
2023-02-26T15:03:04.642Z,100.00
2023-02-26T15:05:42.241Z,100.00
2023-02-26T15:08:40.299Z,100.00
2023-02-26T15:11:49.750Z,100.00
2023-02-26T15:15:13.718Z,100.00
2023-02-26T15:18:33.473Z,100.00
2023-02-26T15:21:21.132Z,100.00
2023-02-26T15:23:54.338Z,100.00
2023-02-26T15:26:32.961Z,100.00
2023-02-26T15:29:12.390Z,100.00
2023-02-26T15:32:00.135Z,100.00
2023-02-26T15:34:34.542Z,100.00
2023-02-26T15:37:03.498Z,100.00
2023-02-26T15:39:32.876Z,100.00
2023-02-26T15:42:10.973Z,100.00
2023-02-26T15:44:47.933Z,100.00
2023-02-26T15:47:24.557Z,100.00
2023-02-26T15:49:56.768Z,100.00
2023-02-26T15:52:29.011Z,100.00
2023-02-26T15:55:05.098Z,100.00
2023-02-26T15:57:33.965Z,100.00
2023-02-26T16:00:27.227Z,100.00
2023-02-26T16:02:59.902Z,100.00
2023-02-26T16:05:30.586Z,100.00
2023-02-26T16:08:02.426Z,100.00
2023-02-26T16:10:42.499Z,100.00
2023-02-26T16:13:35.063Z,100.00
2023-02-26T16:16:35.215Z,100.00
2023-02-26T16:19:42.037Z,100.00
2023-02-26T16:22:39.923Z,100.00
2023-02-26T16:25:39.900Z,100.00
2023-02-26T16:28:33.437Z,100.00
2023-02-26T16:31:25.738Z,100.00
2023-02-26T16:34:36.815Z,100.00
2023-02-26T16:37:32.296Z,100.00
2023-02-26T16:40:11.478Z,100.00
2023-02-26T16:43:27.397Z,100.00
2023-02-26T16:46:01.255Z,100.00
2023-02-26T16:49:36.266Z,100.00
2023-02-26T16:52:20.465Z,100.00
2023-02-26T16:55:11.644Z,100.00
2023-02-26T16:57:58.925Z,100.00
2023-02-26T17:00:33.149Z,100.00
2023-02-26T17:03:28.726Z,100.00
2023-02-26T17:06:48.287Z,100.00
2023-02-26T17:09:48.659Z,100.00
2023-02-26T17:12:29.274Z,100.00
2023-02-26T17:15:12.193Z,100.00
2023-02-26T17:18:17.844Z,100.00
2023-02-26T17:21:00.254Z,100.00
2023-02-26T17:23:41.614Z,100.00
2023-02-26T17:26:18.117Z,100.00
2023-02-26T17:28:54.376Z,100.00
2023-02-26T17:31:30.864Z,100.00
2023-02-26T17:34:10.794Z,100.00
2023-02-26T17:37:08.389Z,99.95
2023-02-26T17:39:39.899Z,99.96
2023-02-26T17:42:27.363Z,99.84
2023-02-26T17:45:20.856Z,100.00
2023-02-26T17:48:13.835Z,99.82
2023-02-26T17:51:10.314Z,99.83
2023-02-26T17:53:45.155Z,99.57
2023-02-26T17:57:05.049Z,99.42
2023-02-26T18:00:04.551Z,99.48
2023-02-26T18:03:24.295Z,99.65
2023-02-26T18:06:08.006Z,99.44
2023-02-26T18:08:50.340Z,99.47
2023-02-26T18:11:25.656Z,99.45
2023-02-26T18:13:57.544Z,99.55
2023-02-26T18:17:07.496Z,99.42
2023-02-26T18:19:36.803Z,99.23
2023-02-26T18:22:16.361Z,99.24
2023-02-26T18:25:04.044Z,99.28
2023-02-26T18:27:47.964Z,99.53
2023-02-26T18:30:28.650Z,99.66
2023-02-26T18:33:03.806Z,99.56
2023-02-26T18:35:52.249Z,99.56
2023-02-26T18:38:34.315Z,99.35
2023-02-26T18:41:32.462Z,99.56
2023-02-26T18:44:01.554Z,99.54
2023-02-26T18:46:41.327Z,99.77
2023-02-26T18:49:20.164Z,99.82
2023-02-26T18:51:49.671Z,99.67
2023-02-26T18:54:33.053Z,99.68
2023-02-26T18:57:13.243Z,99.67
2023-02-26T18:59:44.902Z,99.55
2023-02-26T19:02:14.871Z,99.63
2023-02-26T19:04:46.325Z,99.95
2023-02-26T19:07:18.531Z,99.74
2023-02-26T19:09:53.604Z,99.72
2023-02-26T19:12:23.528Z,99.66
2023-02-26T19:14:52.635Z,99.30
2023-02-26T19:17:22.348Z,99.44
2023-02-26T19:19:51.251Z,98.93
2023-02-26T19:22:20.269Z,99.25
2023-02-26T19:24:49.765Z,99.07
2023-02-26T19:27:19.348Z,98.89
2023-02-26T19:29:52.711Z,99.23
2023-02-26T19:32:29.198Z,99.13
2023-02-26T19:34:59.848Z,99.08
2023-02-26T19:37:28.867Z,99.10
2023-02-26T19:39:57.261Z,98.95
2023-02-26T19:42:29.625Z,98.86
2023-02-26T19:44:58.779Z,98.65
2023-02-26T19:47:28.144Z,98.37
2023-02-26T19:49:59.210Z,98.24
2023-02-26T19:52:31.313Z,98.34
2023-02-26T19:55:01.354Z,98.52
2023-02-26T19:57:31.532Z,98.28
2023-02-26T20:00:03.924Z,98.04
2023-02-26T20:02:55.929Z,97.97
2023-02-26T20:05:25.217Z,98.42
2023-02-26T20:07:54.652Z,98.18
2023-02-26T20:10:28.201Z,98.36
2023-02-26T20:13:00.749Z,98.19
2023-02-26T20:15:29.820Z,97.81
2023-02-26T20:18:00.000Z,97.92
2023-02-26T20:20:29.439Z,98.23
2023-02-26T20:22:59.685Z,97.86
2023-02-26T20:25:30.268Z,97.41
2023-02-26T20:28:00.032Z,97.59
2023-02-26T20:30:29.529Z,97.54
2023-02-26T20:32:58.889Z,97.37
2023-02-26T20:35:30.127Z,97.37
2023-02-26T20:37:59.066Z,97.39
2023-02-26T20:40:28.843Z,97.31
2023-02-26T20:42:57.379Z,97.38
2023-02-26T20:45:30.045Z,97.26
2023-02-26T20:47:59.865Z,97.49
2023-02-26T20:50:28.424Z,97.55
2023-02-26T20:53:02.287Z,97.37
2023-02-26T20:55:34.655Z,97.56
2023-02-26T20:58:05.027Z,97.68
2023-02-26T21:00:36.877Z,97.57
2023-02-26T21:03:08.108Z,97.73
2023-02-26T21:05:40.255Z,97.83
2023-02-26T21:08:10.717Z,97.50
2023-02-26T21:10:41.357Z,97.83
2023-02-26T21:13:16.217Z,97.67
2023-02-26T21:15:45.749Z,97.97
2023-02-26T21:18:15.378Z,98.04
2023-02-26T21:20:44.068Z,97.71
2023-02-26T21:23:12.642Z,97.69
2023-02-26T21:25:41.159Z,97.84
2023-02-26T21:28:09.735Z,97.77
2023-02-26T21:30:38.228Z,98.12
2023-02-26T21:33:08.643Z,97.82
2023-02-26T21:35:37.155Z,98.45
2023-02-26T21:38:05.645Z,98.64
2023-02-26T21:40:36.034Z,98.40
2023-02-26T21:43:04.541Z,98.68
2023-02-26T21:45:34.453Z,98.69
2023-02-26T21:48:04.617Z,98.89
2023-02-26T21:53:49.740Z,99.10
2023-02-26T21:56:20.376Z,99.31
2023-02-26T21:58:48.944Z,99.37
2023-02-26T22:01:17.701Z,99.52
2023-02-26T22:03:46.263Z,99.70
2023-02-26T22:06:14.905Z,99.63
2023-02-26T22:08:43.958Z,99.48
2023-02-26T22:11:12.518Z,99.80
2023-02-26T22:13:41.076Z,99.59
2023-02-26T22:16:10.135Z,99.88
2023-02-26T22:18:38.552Z,99.97
2023-02-26T22:21:07.199Z,99.88
2023-02-26T22:23:36.376Z,100.00
2023-02-26T22:26:05.133Z,100.00
2023-02-26T22:28:33.581Z,100.00
2023-02-26T22:31:02.526Z,100.00
2023-02-26T22:33:31.150Z,100.00
2023-02-26T22:36:00.497Z,99.97
2023-02-26T22:38:29.270Z,100.00
2023-02-26T22:40:57.984Z,100.00
2023-02-26T22:43:26.942Z,100.00
2023-02-26T22:45:55.361Z,100.00
2023-02-26T22:48:23.911Z,99.97
2023-02-26T22:50:52.447Z,100.00
2023-02-26T22:53:20.987Z,100.00
2023-02-26T22:55:49.392Z,99.95
2023-02-26T22:58:17.913Z,99.89
2023-02-26T23:00:46.402Z,99.83
2023-02-26T23:03:15.400Z,99.69
2023-02-26T23:05:43.816Z,100.00
2023-02-26T23:08:12.248Z,99.57
2023-02-26T23:10:40.705Z,99.97
2023-02-26T23:13:09.076Z,99.98
2023-02-26T23:15:38.389Z,99.81
2023-02-26T23:18:06.825Z,99.87
2023-02-26T23:20:35.336Z,99.82
2023-02-26T23:23:04.056Z,99.89
2023-02-26T23:25:32.467Z,99.92
2023-02-26T23:28:00.921Z,99.85
2023-02-26T23:30:29.312Z,100.00
2023-02-26T23:32:57.883Z,100.00
2023-02-26T23:35:26.550Z,100.00
2023-02-26T23:37:54.868Z,100.00
2023-02-26T23:40:23.297Z,100.00
2023-02-26T23:42:52.711Z,100.00
2023-02-26T23:45:21.184Z,100.00
2023-02-26T23:47:49.633Z,100.00
2023-02-26T23:50:19.501Z,100.00
2023-02-26T23:52:47.925Z,100.00
2023-02-26T23:55:16.567Z,100.00
2023-02-26T23:57:45.858Z,100.00
